sensor_id;sensor_type;location;lat;lon;timestamp;P1;durP1;ratioP1;P2;durP2;ratioP2
47365;SDS011;33105;47.964;7.982;2023-02-18T00:01:25;0.82;;;0.50;;
47365;SDS011;33105;47.964;7.982;2023-02-18T00:04:27;1.35;;;0.60;;
47365;SDS011;33105;47.964;7.982;2023-02-18T00:07:28;0.60;;;0.50;;
47365;SDS011;33105;47.964;7.982;2023-02-18T00:10:35;0.40;;;0.40;;
47365;SDS011;33105;47.964;7.982;2023-02-18T00:13:36;0.43;;;0.40;;
47365;SDS011;33105;47.964;7.982;2023-02-18T00:16:37;1.13;;;0.50;;
47365;SDS011;33105;47.964;7.982;2023-02-18T00:19:39;0.85;;;0.50;;
47365;SDS011;33105;47.964;7.982;2023-02-18T00:22:40;0.70;;;0.60;;
47365;SDS011;33105;47.964;7.982;2023-02-18T00:25:41;1.85;;;0.40;;
47365;SDS011;33105;47.964;7.982;2023-02-18T00:28:42;0.50;;;0.45;;
47365;SDS011;33105;47.964;7.982;2023-02-18T00:31:44;0.30;;;0.30;;
47365;SDS011;33105;47.964;7.982;2023-02-18T00:34:45;0.50;;;0.50;;
47365;SDS011;33105;47.964;7.982;2023-02-18T00:37:46;0.50;;;0.50;;
47365;SDS011;33105;47.964;7.982;2023-02-18T00:40:51;0.47;;;0.32;;
47365;SDS011;33105;47.964;7.982;2023-02-18T00:43:52;0.43;;;0.38;;
47365;SDS011;33105;47.964;7.982;2023-02-18T00:46:54;0.30;;;0.22;;
47365;SDS011;33105;47.964;7.982;2023-02-18T00:49:55;0.35;;;0.30;;
47365;SDS011;33105;47.964;7.982;2023-02-18T00:52:56;0.30;;;0.30;;
47365;SDS011;33105;47.964;7.982;2023-02-18T00:55:58;1.95;;;1.13;;
47365;SDS011;33105;47.964;7.982;2023-02-18T00:58:59;1.02;;;0.55;;
47365;SDS011;33105;47.964;7.982;2023-02-18T01:02:01;0.20;;;0.20;;
47365;SDS011;33105;47.964;7.982;2023-02-18T01:05:02;0.73;;;0.30;;
47365;SDS011;33105;47.964;7.982;2023-02-18T01:08:03;0.30;;;0.30;;
47365;SDS011;33105;47.964;7.982;2023-02-18T01:11:05;1.00;;;0.30;;
47365;SDS011;33105;47.964;7.982;2023-02-18T01:14:08;0.45;;;0.28;;
47365;SDS011;33105;47.964;7.982;2023-02-18T01:17:10;0.30;;;0.20;;
47365;SDS011;33105;47.964;7.982;2023-02-18T01:20:14;0.57;;;0.35;;
47365;SDS011;33105;47.964;7.982;2023-02-18T01:23:15;0.30;;;0.30;;
47365;SDS011;33105;47.964;7.982;2023-02-18T01:26:17;0.30;;;0.30;;
47365;SDS011;33105;47.964;7.982;2023-02-18T01:29:18;0.63;;;0.20;;
47365;SDS011;33105;47.964;7.982;2023-02-18T01:32:19;0.20;;;0.20;;
47365;SDS011;33105;47.964;7.982;2023-02-18T01:35:20;0.55;;;0.30;;
47365;SDS011;33105;47.964;7.982;2023-02-18T01:38:22;0.52;;;0.40;;
47365;SDS011;33105;47.964;7.982;2023-02-18T01:41:23;0.13;;;0.13;;
47365;SDS011;33105;47.964;7.982;2023-02-18T01:44:25;0.40;;;0.30;;
47365;SDS011;33105;47.964;7.982;2023-02-18T01:47:28;0.30;;;0.30;;
47365;SDS011;33105;47.964;7.982;2023-02-18T01:50:30;0.38;;;0.38;;
47365;SDS011;33105;47.964;7.982;2023-02-18T01:53:38;0.43;;;0.38;;
47365;SDS011;33105;47.964;7.982;2023-02-18T01:59:58;0.20;;;0.20;;
47365;SDS011;33105;47.964;7.982;2023-02-18T02:03:04;2.17;;;0.43;;
47365;SDS011;33105;47.964;7.982;2023-02-18T02:06:09;0.30;;;0.30;;
47365;SDS011;33105;47.964;7.982;2023-02-18T02:09:16;0.32;;;0.30;;
47365;SDS011;33105;47.964;7.982;2023-02-18T02:36:54;0.40;;;0.30;;
47365;SDS011;33105;47.964;7.982;2023-02-18T02:46:47;1.25;;;0.70;;
47365;SDS011;33105;47.964;7.982;2023-02-18T02:53:10;0.50;;;0.40;;
47365;SDS011;33105;47.964;7.982;2023-02-18T02:56:23;0.57;;;0.57;;
47365;SDS011;33105;47.964;7.982;2023-02-18T02:59:27;0.70;;;0.50;;
47365;SDS011;33105;47.964;7.982;2023-02-18T03:09:32;0.73;;;0.57;;
47365;SDS011;33105;47.964;7.982;2023-02-18T03:12:56;0.57;;;0.57;;
47365;SDS011;33105;47.964;7.982;2023-02-18T03:16:25;1.40;;;0.50;;
47365;SDS011;33105;47.964;7.982;2023-02-18T03:19:48;0.40;;;0.40;;
47365;SDS011;33105;47.964;7.982;2023-02-18T03:22:56;1.58;;;0.80;;
47365;SDS011;33105;47.964;7.982;2023-02-18T03:25:59;1.15;;;0.68;;
47365;SDS011;33105;47.964;7.982;2023-02-18T03:29:04;0.73;;;0.60;;
47365;SDS011;33105;47.964;7.982;2023-02-18T03:32:08;0.55;;;0.55;;
47365;SDS011;33105;47.964;7.982;2023-02-18T03:35:15;1.17;;;0.68;;
47365;SDS011;33105;47.964;7.982;2023-02-18T03:38:19;0.75;;;0.70;;
47365;SDS011;33105;47.964;7.982;2023-02-18T03:41:25;0.60;;;0.50;;
47365;SDS011;33105;47.964;7.982;2023-02-18T03:44:27;1.35;;;0.80;;
47365;SDS011;33105;47.964;7.982;2023-02-18T03:47:31;0.57;;;0.50;;
47365;SDS011;33105;47.964;7.982;2023-02-18T03:50:33;1.70;;;0.70;;
47365;SDS011;33105;47.964;7.982;2023-02-18T03:53:34;2.65;;;0.75;;
47365;SDS011;33105;47.964;7.982;2023-02-18T03:56:35;0.90;;;0.77;;
47365;SDS011;33105;47.964;7.982;2023-02-18T03:59:37;0.73;;;0.73;;
47365;SDS011;33105;47.964;7.982;2023-02-18T04:02:38;1.48;;;0.77;;
47365;SDS011;33105;47.964;7.982;2023-02-18T04:05:40;2.05;;;1.00;;
47365;SDS011;33105;47.964;7.982;2023-02-18T04:08:42;1.27;;;0.90;;
47365;SDS011;33105;47.964;7.982;2023-02-18T04:11:43;1.15;;;1.02;;
47365;SDS011;33105;47.964;7.982;2023-02-18T04:14:44;1.40;;;0.80;;
47365;SDS011;33105;47.964;7.982;2023-02-18T04:17:45;1.05;;;0.80;;
47365;SDS011;33105;47.964;7.982;2023-02-18T04:20:47;1.38;;;0.82;;
47365;SDS011;33105;47.964;7.982;2023-02-18T04:23:48;2.47;;;1.02;;
47365;SDS011;33105;47.964;7.982;2023-02-18T04:26:49;1.38;;;1.00;;
47365;SDS011;33105;47.964;7.982;2023-02-18T04:29:51;0.75;;;0.73;;
47365;SDS011;33105;47.964;7.982;2023-02-18T04:32:52;1.38;;;0.85;;
47365;SDS011;33105;47.964;7.982;2023-02-18T04:35:53;0.63;;;0.63;;
47365;SDS011;33105;47.964;7.982;2023-02-18T04:38:55;1.38;;;0.70;;
47365;SDS011;33105;47.964;7.982;2023-02-18T04:41:56;0.73;;;0.73;;
47365;SDS011;33105;47.964;7.982;2023-02-18T04:44:57;1.45;;;0.95;;
47365;SDS011;33105;47.964;7.982;2023-02-18T04:47:58;2.17;;;1.35;;
47365;SDS011;33105;47.964;7.982;2023-02-18T04:51:00;1.20;;;1.00;;
47365;SDS011;33105;47.964;7.982;2023-02-18T04:54:01;2.35;;;1.00;;
47365;SDS011;33105;47.964;7.982;2023-02-18T04:57:03;1.35;;;0.90;;
47365;SDS011;33105;47.964;7.982;2023-02-18T05:00:06;0.75;;;0.65;;
47365;SDS011;33105;47.964;7.982;2023-02-18T05:03:08;2.30;;;1.00;;
47365;SDS011;33105;47.964;7.982;2023-02-18T05:06:10;0.60;;;0.60;;
47365;SDS011;33105;47.964;7.982;2023-02-18T05:09:12;0.73;;;0.68;;
47365;SDS011;33105;47.964;7.982;2023-02-18T05:12:13;1.58;;;0.90;;
47365;SDS011;33105;47.964;7.982;2023-02-18T05:15:15;0.95;;;0.77;;
47365;SDS011;33105;47.964;7.982;2023-02-18T05:18:16;1.02;;;0.60;;
47365;SDS011;33105;47.964;7.982;2023-02-18T05:21:17;1.13;;;0.70;;
47365;SDS011;33105;47.964;7.982;2023-02-18T05:24:18;1.33;;;0.80;;
47365;SDS011;33105;47.964;7.982;2023-02-18T05:27:20;0.77;;;0.77;;
47365;SDS011;33105;47.964;7.982;2023-02-18T05:30:21;1.55;;;0.73;;
47365;SDS011;33105;47.964;7.982;2023-02-18T05:33:22;1.08;;;0.70;;
47365;SDS011;33105;47.964;7.982;2023-02-18T05:36:24;0.98;;;0.73;;
47365;SDS011;33105;47.964;7.982;2023-02-18T05:39:25;0.90;;;0.80;;
47365;SDS011;33105;47.964;7.982;2023-02-18T05:42:26;1.35;;;1.02;;
47365;SDS011;33105;47.964;7.982;2023-02-18T05:45:27;2.38;;;0.50;;
47365;SDS011;33105;47.964;7.982;2023-02-18T05:48:28;1.27;;;0.60;;
47365;SDS011;33105;47.964;7.982;2023-02-18T05:51:30;1.42;;;0.80;;
47365;SDS011;33105;47.964;7.982;2023-02-18T05:54:31;0.60;;;0.60;;
47365;SDS011;33105;47.964;7.982;2023-02-18T05:57:33;0.45;;;0.40;;
47365;SDS011;33105;47.964;7.982;2023-02-18T06:00:35;0.88;;;0.50;;
47365;SDS011;33105;47.964;7.982;2023-02-18T06:03:36;0.77;;;0.45;;
47365;SDS011;33105;47.964;7.982;2023-02-18T06:06:37;1.20;;;0.63;;
47365;SDS011;33105;47.964;7.982;2023-02-18T06:09:38;0.60;;;0.60;;
47365;SDS011;33105;47.964;7.982;2023-02-18T06:12:40;1.15;;;0.68;;
47365;SDS011;33105;47.964;7.982;2023-02-18T06:15:41;2.13;;;0.80;;
47365;SDS011;33105;47.964;7.982;2023-02-18T06:18:42;1.05;;;0.57;;
47365;SDS011;33105;47.964;7.982;2023-02-18T06:21:43;1.13;;;0.95;;
47365;SDS011;33105;47.964;7.982;2023-02-18T06:24:44;1.63;;;0.60;;
47365;SDS011;33105;47.964;7.982;2023-02-18T06:27:46;0.70;;;0.68;;
47365;SDS011;33105;47.964;7.982;2023-02-18T06:30:47;1.75;;;0.90;;
47365;SDS011;33105;47.964;7.982;2023-02-18T06:33:50;0.70;;;0.50;;
47365;SDS011;33105;47.964;7.982;2023-02-18T06:36:51;1.92;;;1.08;;
47365;SDS011;33105;47.964;7.982;2023-02-18T06:39:52;1.60;;;0.90;;
47365;SDS011;33105;47.964;7.982;2023-02-18T06:42:54;1.02;;;0.73;;
47365;SDS011;33105;47.964;7.982;2023-02-18T06:45:55;2.47;;;0.70;;
47365;SDS011;33105;47.964;7.982;2023-02-18T06:48:57;1.20;;;0.70;;
47365;SDS011;33105;47.964;7.982;2023-02-18T06:51:58;0.60;;;0.60;;
47365;SDS011;33105;47.964;7.982;2023-02-18T06:54:59;1.02;;;0.80;;
47365;SDS011;33105;47.964;7.982;2023-02-18T06:58:00;1.30;;;0.80;;
47365;SDS011;33105;47.964;7.982;2023-02-18T07:01:02;1.60;;;1.10;;
47365;SDS011;33105;47.964;7.982;2023-02-18T07:04:04;0.70;;;0.70;;
47365;SDS011;33105;47.964;7.982;2023-02-18T07:07:05;1.08;;;0.73;;
47365;SDS011;33105;47.964;7.982;2023-02-18T07:10:07;1.58;;;0.82;;
47365;SDS011;33105;47.964;7.982;2023-02-18T07:13:08;0.50;;;0.50;;
47365;SDS011;33105;47.964;7.982;2023-02-18T07:16:10;1.00;;;0.80;;
47365;SDS011;33105;47.964;7.982;2023-02-18T07:19:11;1.00;;;0.68;;
47365;SDS011;33105;47.964;7.982;2023-02-18T07:22:12;0.60;;;0.60;;
47365;SDS011;33105;47.964;7.982;2023-02-18T07:25:14;1.30;;;0.75;;
47365;SDS011;33105;47.964;7.982;2023-02-18T07:28:15;0.70;;;0.60;;
47365;SDS011;33105;47.964;7.982;2023-02-18T07:31:16;1.30;;;0.90;;
47365;SDS011;33105;47.964;7.982;2023-02-18T07:34:18;2.65;;;0.70;;
47365;SDS011;33105;47.964;7.982;2023-02-18T07:37:19;4.97;;;0.60;;
47365;SDS011;33105;47.964;7.982;2023-02-18T07:40:20;1.40;;;0.80;;
47365;SDS011;33105;47.964;7.982;2023-02-18T07:43:22;0.98;;;0.57;;
47365;SDS011;33105;47.964;7.982;2023-02-18T07:46:23;0.75;;;0.60;;
47365;SDS011;33105;47.964;7.982;2023-02-18T07:49:25;0.95;;;0.70;;
47365;SDS011;33105;47.964;7.982;2023-02-18T07:52:26;1.17;;;0.75;;
47365;SDS011;33105;47.964;7.982;2023-02-18T07:55:27;1.35;;;0.52;;
47365;SDS011;33105;47.964;7.982;2023-02-18T07:58:48;0.50;;;0.50;;
47365;SDS011;33105;47.964;7.982;2023-02-18T08:01:49;0.75;;;0.55;;
47365;SDS011;33105;47.964;7.982;2023-02-18T08:04:51;1.65;;;0.65;;
47365;SDS011;33105;47.964;7.982;2023-02-18T08:07:52;1.25;;;0.80;;
47365;SDS011;33105;47.964;7.982;2023-02-18T08:10:54;0.80;;;0.70;;
47365;SDS011;33105;47.964;7.982;2023-02-18T08:13:57;0.68;;;0.50;;
47365;SDS011;33105;47.964;7.982;2023-02-18T08:16:58;0.88;;;0.52;;
47365;SDS011;33105;47.964;7.982;2023-02-18T08:20:00;3.30;;;0.45;;
47365;SDS011;33105;47.964;7.982;2023-02-18T08:23:01;0.82;;;0.40;;
47365;SDS011;33105;47.964;7.982;2023-02-18T08:26:02;0.43;;;0.40;;
47365;SDS011;33105;47.964;7.982;2023-02-18T08:29:03;0.50;;;0.40;;
47365;SDS011;33105;47.964;7.982;2023-02-18T08:32:05;1.50;;;0.55;;
47365;SDS011;33105;47.964;7.982;2023-02-18T08:35:06;0.43;;;0.43;;
47365;SDS011;33105;47.964;7.982;2023-02-18T08:38:08;1.45;;;0.50;;
47365;SDS011;33105;47.964;7.982;2023-02-18T08:41:09;1.10;;;0.60;;
47365;SDS011;33105;47.964;7.982;2023-02-18T08:44:11;1.00;;;0.73;;
47365;SDS011;33105;47.964;7.982;2023-02-18T08:47:13;1.70;;;0.63;;
47365;SDS011;33105;47.964;7.982;2023-02-18T08:50:14;1.40;;;0.60;;
47365;SDS011;33105;47.964;7.982;2023-02-18T08:53:15;1.35;;;0.90;;
47365;SDS011;33105;47.964;7.982;2023-02-18T08:56:17;2.85;;;1.02;;
47365;SDS011;33105;47.964;7.982;2023-02-18T08:59:18;1.25;;;0.75;;
47365;SDS011;33105;47.964;7.982;2023-02-18T09:02:20;1.15;;;0.60;;
47365;SDS011;33105;47.964;7.982;2023-02-18T09:05:21;0.90;;;0.75;;
47365;SDS011;33105;47.964;7.982;2023-02-18T09:08:22;1.23;;;0.75;;
47365;SDS011;33105;47.964;7.982;2023-02-18T09:11:23;0.88;;;0.73;;
47365;SDS011;33105;47.964;7.982;2023-02-18T09:14:24;1.65;;;0.82;;
47365;SDS011;33105;47.964;7.982;2023-02-18T09:17:26;0.80;;;0.63;;
47365;SDS011;33105;47.964;7.982;2023-02-18T09:20:28;0.90;;;0.52;;
47365;SDS011;33105;47.964;7.982;2023-02-18T09:23:30;2.30;;;0.70;;
47365;SDS011;33105;47.964;7.982;2023-02-18T09:26:32;1.27;;;0.70;;
47365;SDS011;33105;47.964;7.982;2023-02-18T09:29:33;0.80;;;0.70;;
47365;SDS011;33105;47.964;7.982;2023-02-18T09:32:38;2.13;;;0.63;;
47365;SDS011;33105;47.964;7.982;2023-02-18T09:35:40;0.70;;;0.70;;
47365;SDS011;33105;47.964;7.982;2023-02-18T09:38:42;2.33;;;0.90;;
47365;SDS011;33105;47.964;7.982;2023-02-18T09:41:45;0.93;;;0.70;;
47365;SDS011;33105;47.964;7.982;2023-02-18T09:44:50;1.30;;;0.50;;
47365;SDS011;33105;47.964;7.982;2023-02-18T09:47:53;0.60;;;0.60;;
47365;SDS011;33105;47.964;7.982;2023-02-18T09:50:55;1.48;;;0.65;;
47365;SDS011;33105;47.964;7.982;2023-02-18T09:53:57;0.98;;;0.60;;
47365;SDS011;33105;47.964;7.982;2023-02-18T09:56:58;0.60;;;0.55;;
47365;SDS011;33105;47.964;7.982;2023-02-18T10:00:06;1.80;;;0.60;;
47365;SDS011;33105;47.964;7.982;2023-02-18T10:03:18;0.77;;;0.60;;
47365;SDS011;33105;47.964;7.982;2023-02-18T10:06:23;0.80;;;0.50;;
47365;SDS011;33105;47.964;7.982;2023-02-18T10:09:36;1.00;;;0.63;;
47365;SDS011;33105;47.964;7.982;2023-02-18T10:12:38;1.92;;;0.60;;
47365;SDS011;33105;47.964;7.982;2023-02-18T10:15:41;1.17;;;0.70;;
47365;SDS011;33105;47.964;7.982;2023-02-18T10:18:44;3.60;;;0.70;;
47365;SDS011;33105;47.964;7.982;2023-02-18T10:21:50;1.20;;;0.80;;
47365;SDS011;33105;47.964;7.982;2023-02-18T10:24:54;0.65;;;0.52;;
47365;SDS011;33105;47.964;7.982;2023-02-18T10:27:59;0.60;;;0.52;;
47365;SDS011;33105;47.964;7.982;2023-02-18T10:31:07;1.15;;;0.88;;
47365;SDS011;33105;47.964;7.982;2023-02-18T10:46:59;1.88;;;0.50;;
47365;SDS011;33105;47.964;7.982;2023-02-18T10:53:41;2.45;;;0.80;;
47365;SDS011;33105;47.964;7.982;2023-02-18T10:56:48;1.42;;;0.50;;
47365;SDS011;33105;47.964;7.982;2023-02-18T10:59:56;0.63;;;0.60;;
47365;SDS011;33105;47.964;7.982;2023-02-18T11:03:14;1.05;;;0.50;;
47365;SDS011;33105;47.964;7.982;2023-02-18T11:06:30;0.98;;;0.38;;
47365;SDS011;33105;47.964;7.982;2023-02-18T11:09:38;1.67;;;0.40;;
47365;SDS011;33105;47.964;7.982;2023-02-18T11:12:46;1.00;;;0.50;;
47365;SDS011;33105;47.964;7.982;2023-02-18T11:16:03;1.00;;;0.57;;
47365;SDS011;33105;47.964;7.982;2023-02-18T11:22:42;0.45;;;0.45;;
47365;SDS011;33105;47.964;7.982;2023-02-18T11:26:02;0.93;;;0.63;;
47365;SDS011;33105;47.964;7.982;2023-02-18T11:29:07;0.63;;;0.40;;
47365;SDS011;33105;47.964;7.982;2023-02-18T11:32:17;1.67;;;0.35;;
47365;SDS011;33105;47.964;7.982;2023-02-18T11:35:19;0.50;;;0.50;;
47365;SDS011;33105;47.964;7.982;2023-02-18T11:38:40;0.73;;;0.50;;
47365;SDS011;33105;47.964;7.982;2023-02-18T11:41:53;0.95;;;0.40;;
47365;SDS011;33105;47.964;7.982;2023-02-18T11:44:56;0.90;;;0.45;;
47365;SDS011;33105;47.964;7.982;2023-02-18T11:48:06;1.42;;;0.50;;
47365;SDS011;33105;47.964;7.982;2023-02-18T11:51:22;0.80;;;0.52;;
47365;SDS011;33105;47.964;7.982;2023-02-18T11:54:27;2.13;;;0.43;;
47365;SDS011;33105;47.964;7.982;2023-02-18T11:57:31;1.10;;;0.50;;
47365;SDS011;33105;47.964;7.982;2023-02-18T12:00:36;1.10;;;0.50;;
47365;SDS011;33105;47.964;7.982;2023-02-18T12:03:46;0.75;;;0.43;;
47365;SDS011;33105;47.964;7.982;2023-02-18T12:10:30;2.17;;;0.68;;
47365;SDS011;33105;47.964;7.982;2023-02-18T12:13:56;0.40;;;0.40;;
47365;SDS011;33105;47.964;7.982;2023-02-18T12:23:31;0.80;;;0.45;;
47365;SDS011;33105;47.964;7.982;2023-02-18T12:27:09;1.45;;;0.50;;
47365;SDS011;33105;47.964;7.982;2023-02-18T12:47:29;0.88;;;0.63;;
47365;SDS011;33105;47.964;7.982;2023-02-18T12:50:52;1.60;;;0.60;;
47365;SDS011;33105;47.964;7.982;2023-02-18T13:10:45;1.02;;;0.57;;
47365;SDS011;33105;47.964;7.982;2023-02-18T13:17:26;0.60;;;0.55;;
47365;SDS011;33105;47.964;7.982;2023-02-18T13:20:45;3.03;;;1.40;;
47365;SDS011;33105;47.964;7.982;2023-02-18T13:23:52;1.27;;;0.57;;
47365;SDS011;33105;47.964;7.982;2023-02-18T13:31:46;1.13;;;0.70;;
47365;SDS011;33105;47.964;7.982;2023-02-18T13:34:35;2.83;;;1.98;;
47365;SDS011;33105;47.964;7.982;2023-02-18T13:41:15;1.75;;;1.33;;
47365;SDS011;33105;47.964;7.982;2023-02-18T13:50:39;1.75;;;0.77;;
47365;SDS011;33105;47.964;7.982;2023-02-18T13:53:43;1.88;;;1.00;;
47365;SDS011;33105;47.964;7.982;2023-02-18T13:56:53;0.73;;;0.63;;
47365;SDS011;33105;47.964;7.982;2023-02-18T13:59:58;1.70;;;0.98;;
47365;SDS011;33105;47.964;7.982;2023-02-18T14:03:19;1.30;;;0.80;;
47365;SDS011;33105;47.964;7.982;2023-02-18T14:06:39;1.35;;;1.17;;
47365;SDS011;33105;47.964;7.982;2023-02-18T14:16:23;1.80;;;1.40;;
47365;SDS011;33105;47.964;7.982;2023-02-18T14:19:28;2.05;;;1.23;;
47365;SDS011;33105;47.964;7.982;2023-02-18T14:25:33;1.90;;;1.20;;
47365;SDS011;33105;47.964;7.982;2023-02-18T14:28:40;2.22;;;1.33;;
47365;SDS011;33105;47.964;7.982;2023-02-18T14:31:46;1.30;;;0.75;;
47365;SDS011;33105;47.964;7.982;2023-02-18T14:35:32;2.58;;;1.05;;
47365;SDS011;33105;47.964;7.982;2023-02-18T14:41:59;1.08;;;0.98;;
47365;SDS011;33105;47.964;7.982;2023-02-18T14:45:10;1.60;;;0.93;;
47365;SDS011;33105;47.964;7.982;2023-02-18T14:52:00;1.20;;;1.05;;
47365;SDS011;33105;47.964;7.982;2023-02-18T14:55:05;1.13;;;1.02;;
47365;SDS011;33105;47.964;7.982;2023-02-18T14:58:23;1.52;;;0.90;;
47365;SDS011;33105;47.964;7.982;2023-02-18T15:01:30;1.67;;;1.00;;
47365;SDS011;33105;47.964;7.982;2023-02-18T15:04:33;0.85;;;0.85;;
47365;SDS011;33105;47.964;7.982;2023-02-18T15:07:36;1.45;;;1.00;;
47365;SDS011;33105;47.964;7.982;2023-02-18T15:10:48;1.17;;;0.98;;
47365;SDS011;33105;47.964;7.982;2023-02-18T15:13:52;2.15;;;1.10;;
47365;SDS011;33105;47.964;7.982;2023-02-18T15:16:54;1.42;;;0.82;;
47365;SDS011;33105;47.964;7.982;2023-02-18T15:19:56;0.90;;;0.82;;
47365;SDS011;33105;47.964;7.982;2023-02-18T15:23:00;1.48;;;0.80;;
47365;SDS011;33105;47.964;7.982;2023-02-18T15:26:01;1.48;;;1.02;;
47365;SDS011;33105;47.964;7.982;2023-02-18T15:29:04;1.40;;;0.70;;
47365;SDS011;33105;47.964;7.982;2023-02-18T15:32:13;1.90;;;1.00;;
47365;SDS011;33105;47.964;7.982;2023-02-18T15:35:17;1.83;;;1.02;;
47365;SDS011;33105;47.964;7.982;2023-02-18T15:38:19;1.33;;;0.75;;
47365;SDS011;33105;47.964;7.982;2023-02-18T15:41:21;1.23;;;1.00;;
47365;SDS011;33105;47.964;7.982;2023-02-18T15:44:23;0.88;;;0.80;;
47365;SDS011;33105;47.964;7.982;2023-02-18T15:47:27;1.30;;;1.20;;
47365;SDS011;33105;47.964;7.982;2023-02-18T15:50:30;2.13;;;1.00;;
47365;SDS011;33105;47.964;7.982;2023-02-18T15:53:35;1.60;;;0.80;;
47365;SDS011;33105;47.964;7.982;2023-02-18T15:56:39;1.40;;;0.90;;
47365;SDS011;33105;47.964;7.982;2023-02-18T15:59:44;0.82;;;0.80;;
47365;SDS011;33105;47.964;7.982;2023-02-18T16:02:55;1.42;;;0.93;;
47365;SDS011;33105;47.964;7.982;2023-02-18T16:06:09;1.03;;;0.93;;
47365;SDS011;33105;47.964;7.982;2023-02-18T16:09:31;2.55;;;1.13;;
47365;SDS011;33105;47.964;7.982;2023-02-18T16:12:33;1.88;;;1.10;;
47365;SDS011;33105;47.964;7.982;2023-02-18T16:15:39;0.65;;;0.65;;
47365;SDS011;33105;47.964;7.982;2023-02-18T16:18:41;0.80;;;0.80;;
47365;SDS011;33105;47.964;7.982;2023-02-18T16:21:44;1.98;;;1.20;;
47365;SDS011;33105;47.964;7.982;2023-02-18T16:24:46;2.35;;;1.35;;
47365;SDS011;33105;47.964;7.982;2023-02-18T16:30:58;0.88;;;0.85;;
47365;SDS011;33105;47.964;7.982;2023-02-18T16:33:59;2.03;;;1.02;;
47365;SDS011;33105;47.964;7.982;2023-02-18T16:37:01;1.50;;;1.00;;
47365;SDS011;33105;47.964;7.982;2023-02-18T16:43:23;2.45;;;1.42;;
47365;SDS011;33105;47.964;7.982;2023-02-18T16:46:27;21.58;;;9.32;;
47365;SDS011;33105;47.964;7.982;2023-02-18T16:49:29;13.35;;;5.63;;
47365;SDS011;33105;47.964;7.982;2023-02-18T16:52:31;4.57;;;2.25;;
47365;SDS011;33105;47.964;7.982;2023-02-18T16:55:32;3.13;;;1.98;;
47365;SDS011;33105;47.964;7.982;2023-02-18T16:58:33;1.95;;;1.38;;
47365;SDS011;33105;47.964;7.982;2023-02-18T17:01:36;3.67;;;1.83;;
47365;SDS011;33105;47.964;7.982;2023-02-18T17:04:41;2.05;;;1.08;;
47365;SDS011;33105;47.964;7.982;2023-02-18T17:07:42;2.40;;;1.20;;
47365;SDS011;33105;47.964;7.982;2023-02-18T17:10:44;4.43;;;1.20;;
47365;SDS011;33105;47.964;7.982;2023-02-18T17:13:50;2.50;;;1.25;;
47365;SDS011;33105;47.964;7.982;2023-02-18T17:16:52;1.52;;;1.30;;
47365;SDS011;33105;47.964;7.982;2023-02-18T17:19:54;1.20;;;1.10;;
47365;SDS011;33105;47.964;7.982;2023-02-18T17:22:55;2.72;;;1.25;;
47365;SDS011;33105;47.964;7.982;2023-02-18T17:25:56;1.08;;;0.98;;
47365;SDS011;33105;47.964;7.982;2023-02-18T17:28:58;3.42;;;1.30;;
47365;SDS011;33105;47.964;7.982;2023-02-18T17:32:04;1.27;;;1.00;;
47365;SDS011;33105;47.964;7.982;2023-02-18T17:35:09;1.50;;;0.98;;
47365;SDS011;33105;47.964;7.982;2023-02-18T17:38:18;1.40;;;1.02;;
47365;SDS011;33105;47.964;7.982;2023-02-18T17:41:20;3.85;;;1.42;;
47365;SDS011;33105;47.964;7.982;2023-02-18T17:44:21;2.70;;;1.40;;
47365;SDS011;33105;47.964;7.982;2023-02-18T17:47:24;2.97;;;1.40;;
47365;SDS011;33105;47.964;7.982;2023-02-18T17:50:26;2.70;;;1.00;;
47365;SDS011;33105;47.964;7.982;2023-02-18T17:53:28;2.17;;;1.30;;
47365;SDS011;33105;47.964;7.982;2023-02-18T17:56:29;3.33;;;1.27;;
47365;SDS011;33105;47.964;7.982;2023-02-18T17:59:31;2.88;;;1.92;;
47365;SDS011;33105;47.964;7.982;2023-02-18T18:02:32;2.50;;;1.65;;
47365;SDS011;33105;47.964;7.982;2023-02-18T18:05:34;2.20;;;1.35;;
47365;SDS011;33105;47.964;7.982;2023-02-18T18:08:38;2.50;;;1.20;;
47365;SDS011;33105;47.964;7.982;2023-02-18T18:11:39;3.10;;;1.30;;
47365;SDS011;33105;47.964;7.982;2023-02-18T18:14:40;2.15;;;1.30;;
47365;SDS011;33105;47.964;7.982;2023-02-18T18:17:41;2.08;;;1.42;;
47365;SDS011;33105;47.964;7.982;2023-02-18T18:20:47;1.63;;;1.27;;
47365;SDS011;33105;47.964;7.982;2023-02-18T18:23:50;3.63;;;1.60;;
47365;SDS011;33105;47.964;7.982;2023-02-18T18:26:52;1.80;;;1.30;;
47365;SDS011;33105;47.964;7.982;2023-02-18T18:29:53;1.58;;;1.20;;
47365;SDS011;33105;47.964;7.982;2023-02-18T18:32:54;1.60;;;1.33;;
47365;SDS011;33105;47.964;7.982;2023-02-18T18:35:57;1.30;;;1.10;;
47365;SDS011;33105;47.964;7.982;2023-02-18T18:38:59;1.65;;;1.25;;
47365;SDS011;33105;47.964;7.982;2023-02-18T18:42:00;2.13;;;1.25;;
47365;SDS011;33105;47.964;7.982;2023-02-18T18:45:01;3.17;;;1.15;;
47365;SDS011;33105;47.964;7.982;2023-02-18T18:48:04;3.67;;;1.50;;
47365;SDS011;33105;47.964;7.982;2023-02-18T18:51:06;1.92;;;1.27;;
47365;SDS011;33105;47.964;7.982;2023-02-18T18:54:10;2.47;;;1.35;;
47365;SDS011;33105;47.964;7.982;2023-02-18T18:57:12;1.98;;;1.60;;
47365;SDS011;33105;47.964;7.982;2023-02-18T19:00:14;3.05;;;2.20;;
47365;SDS011;33105;47.964;7.982;2023-02-18T19:03:17;2.53;;;1.90;;
47365;SDS011;33105;47.964;7.982;2023-02-18T19:06:19;3.42;;;1.85;;
47365;SDS011;33105;47.964;7.982;2023-02-18T19:09:21;5.60;;;2.30;;
47365;SDS011;33105;47.964;7.982;2023-02-18T19:12:22;3.22;;;2.13;;
47365;SDS011;33105;47.964;7.982;2023-02-18T19:15:23;3.85;;;2.17;;
47365;SDS011;33105;47.964;7.982;2023-02-18T19:18:24;1.67;;;1.52;;
47365;SDS011;33105;47.964;7.982;2023-02-18T19:21:27;1.95;;;1.30;;
47365;SDS011;33105;47.964;7.982;2023-02-18T19:24:28;2.50;;;1.00;;
47365;SDS011;33105;47.964;7.982;2023-02-18T19:27:29;1.80;;;1.30;;
47365;SDS011;33105;47.964;7.982;2023-02-18T19:30:32;2.22;;;1.55;;
47365;SDS011;33105;47.964;7.982;2023-02-18T19:33:35;3.47;;;2.60;;
47365;SDS011;33105;47.964;7.982;2023-02-18T19:36:38;1.88;;;1.55;;
47365;SDS011;33105;47.964;7.982;2023-02-18T19:39:40;2.30;;;1.30;;
47365;SDS011;33105;47.964;7.982;2023-02-18T19:42:41;2.10;;;1.17;;
47365;SDS011;33105;47.964;7.982;2023-02-18T19:45:43;1.60;;;1.50;;
47365;SDS011;33105;47.964;7.982;2023-02-18T19:48:47;1.60;;;1.30;;
47365;SDS011;33105;47.964;7.982;2023-02-18T19:51:50;3.47;;;1.27;;
47365;SDS011;33105;47.964;7.982;2023-02-18T19:54:51;2.83;;;1.55;;
47365;SDS011;33105;47.964;7.982;2023-02-18T19:57:52;3.47;;;1.40;;
47365;SDS011;33105;47.964;7.982;2023-02-18T20:00:55;1.25;;;1.10;;
47365;SDS011;33105;47.964;7.982;2023-02-18T20:03:56;2.80;;;1.48;;
47365;SDS011;33105;47.964;7.982;2023-02-18T20:06:59;2.60;;;1.67;;
47365;SDS011;33105;47.964;7.982;2023-02-18T20:10:01;2.17;;;1.45;;
47365;SDS011;33105;47.964;7.982;2023-02-18T20:13:06;3.47;;;1.60;;
47365;SDS011;33105;47.964;7.982;2023-02-18T20:16:11;3.67;;;1.50;;
47365;SDS011;33105;47.964;7.982;2023-02-18T20:19:12;2.38;;;2.10;;
47365;SDS011;33105;47.964;7.982;2023-02-18T20:22:13;2.35;;;1.58;;
47365;SDS011;33105;47.964;7.982;2023-02-18T20:25:14;1.85;;;1.35;;
47365;SDS011;33105;47.964;7.982;2023-02-18T20:28:16;1.60;;;1.20;;
47365;SDS011;33105;47.964;7.982;2023-02-18T20:31:17;2.97;;;1.55;;
47365;SDS011;33105;47.964;7.982;2023-02-18T20:34:18;6.32;;;1.90;;
47365;SDS011;33105;47.964;7.982;2023-02-18T20:37:20;3.55;;;2.13;;
47365;SDS011;33105;47.964;7.982;2023-02-18T20:40:21;2.88;;;1.80;;
47365;SDS011;33105;47.964;7.982;2023-02-18T20:43:22;2.47;;;1.58;;
47365;SDS011;33105;47.964;7.982;2023-02-18T20:46:24;2.50;;;1.90;;
47365;SDS011;33105;47.964;7.982;2023-02-18T20:49:25;2.58;;;1.58;;
47365;SDS011;33105;47.964;7.982;2023-02-18T20:52:26;2.08;;;1.65;;
47365;SDS011;33105;47.964;7.982;2023-02-18T20:55:28;2.15;;;1.60;;
47365;SDS011;33105;47.964;7.982;2023-02-18T20:58:29;3.90;;;1.75;;